sensor_id;sensor_type;location;lat;lon;timestamp;pressure;altitude;pressure_sealevel;temperature;humidity
79198;BME280;68628;48.714;9.472;2023-05-19T00:01:13;98528.34;;;12.53;56.63
79198;BME280;68628;48.714;9.472;2023-05-19T00:03:50;98531.75;;;12.61;57.30
79198;BME280;68628;48.714;9.472;2023-05-19T00:06:23;98530.56;;;12.49;56.29
79198;BME280;68628;48.714;9.472;2023-05-19T00:09:02;98534.13;;;12.56;56.10
79198;BME280;68628;48.714;9.472;2023-05-19T00:11:30;98530.09;;;12.45;56.69
79198;BME280;68628;48.714;9.472;2023-05-19T00:13:57;98519.91;;;12.57;57.81
79198;BME280;68628;48.714;9.472;2023-05-19T00:16:26;98523.81;;;12.46;56.60
79198;BME280;68628;48.714;9.472;2023-05-19T00:18:52;98524.09;;;12.52;56.81
79198;BME280;68628;48.714;9.472;2023-05-19T00:21:19;98527.06;;;12.48;57.42
79198;BME280;68628;48.714;9.472;2023-05-19T00:23:45;98521.41;;;12.37;57.77
79198;BME280;68628;48.714;9.472;2023-05-19T00:26:11;98517.88;;;12.44;57.46
79198;BME280;68628;48.714;9.472;2023-05-19T00:28:36;98517.59;;;12.39;58.42
79198;BME280;68628;48.714;9.472;2023-05-19T00:31:04;98515.69;;;12.33;58.75
79198;BME280;68628;48.714;9.472;2023-05-19T00:33:30;98518.56;;;12.38;58.53
79198;BME280;68628;48.714;9.472;2023-05-19T00:35:58;98523.31;;;12.28;58.82
79198;BME280;68628;48.714;9.472;2023-05-19T00:38:24;98508.25;;;12.13;58.99
79198;BME280;68628;48.714;9.472;2023-05-19T00:40:50;98511.69;;;12.14;59.05
79198;BME280;68628;48.714;9.472;2023-05-19T00:43:16;98515.81;;;12.16;59.75
79198;BME280;68628;48.714;9.472;2023-05-19T00:45:41;98507.41;;;12.13;59.35
79198;BME280;68628;48.714;9.472;2023-05-19T00:48:07;98507.06;;;12.16;59.29
79198;BME280;68628;48.714;9.472;2023-05-19T00:50:33;98512.75;;;12.05;59.82
79198;BME280;68628;48.714;9.472;2023-05-19T00:52:58;98508.25;;;12.13;59.76
79198;BME280;68628;48.714;9.472;2023-05-19T00:55:30;98511.06;;;12.12;59.46
79198;BME280;68628;48.714;9.472;2023-05-19T00:57:57;98510.81;;;12.22;59.47
79198;BME280;68628;48.714;9.472;2023-05-19T01:00:23;98510.28;;;12.03;60.24
79198;BME280;68628;48.714;9.472;2023-05-19T01:02:50;98508.03;;;12.00;60.54
79198;BME280;68628;48.714;9.472;2023-05-19T01:05:16;98513.53;;;12.13;60.01
79198;BME280;68628;48.714;9.472;2023-05-19T01:07:42;98502.00;;;12.06;60.12
79198;BME280;68628;48.714;9.472;2023-05-19T01:10:08;98505.81;;;12.04;60.00
79198;BME280;68628;48.714;9.472;2023-05-19T01:12:35;98495.44;;;12.02;60.32
79198;BME280;68628;48.714;9.472;2023-05-19T01:15:02;98498.44;;;11.99;60.69
79198;BME280;68628;48.714;9.472;2023-05-19T01:17:53;98497.78;;;11.97;59.82
79198;BME280;68628;48.714;9.472;2023-05-19T01:20:35;98499.25;;;11.99;60.80
79198;BME280;68628;48.714;9.472;2023-05-19T01:32:03;98499.38;;;11.83;60.41
79198;BME280;68628;48.714;9.472;2023-05-19T01:34:33;98501.81;;;11.84;59.83
79198;BME280;68628;48.714;9.472;2023-05-19T01:37:06;98505.56;;;11.90;60.23
79198;BME280;68628;48.714;9.472;2023-05-19T01:39:34;98506.84;;;11.94;59.57
79198;BME280;68628;48.714;9.472;2023-05-19T01:42:03;98509.94;;;12.06;60.06
79198;BME280;68628;48.714;9.472;2023-05-19T01:44:32;98522.22;;;11.99;59.98
79198;BME280;68628;48.714;9.472;2023-05-19T01:46:59;98514.22;;;11.84;59.39
79198;BME280;68628;48.714;9.472;2023-05-19T01:49:25;98515.38;;;11.81;59.73
79198;BME280;68628;48.714;9.472;2023-05-19T01:51:51;98515.03;;;11.84;60.28
79198;BME280;68628;48.714;9.472;2023-05-19T01:54:17;98514.53;;;11.81;60.34
79198;BME280;68628;48.714;9.472;2023-05-19T01:57:23;98509.44;;;11.79;59.98
79198;BME280;68628;48.714;9.472;2023-05-19T02:08:54;98510.44;;;11.55;61.45
79198;BME280;68628;48.714;9.472;2023-05-19T02:11:41;98503.97;;;11.58;61.66
79198;BME280;68628;48.714;9.472;2023-05-19T02:14:43;98494.00;;;11.45;61.19
79198;BME280;68628;48.714;9.472;2023-05-19T02:17:16;98496.69;;;11.37;61.69
79198;BME280;68628;48.714;9.472;2023-05-19T02:19:44;98504.28;;;11.31;61.87
79198;BME280;68628;48.714;9.472;2023-05-19T02:22:11;98491.59;;;11.35;61.39
79198;BME280;68628;48.714;9.472;2023-05-19T02:24:36;98501.00;;;11.29;61.21
79198;BME280;68628;48.714;9.472;2023-05-19T02:27:03;98494.91;;;11.29;60.95
79198;BME280;68628;48.714;9.472;2023-05-19T02:29:29;98489.44;;;11.30;62.04
79198;BME280;68628;48.714;9.472;2023-05-19T02:31:55;98501.47;;;11.33;62.22
79198;BME280;68628;48.714;9.472;2023-05-19T02:34:20;98505.88;;;11.41;61.67
79198;BME280;68628;48.714;9.472;2023-05-19T02:36:47;98501.47;;;11.33;62.73
79198;BME280;68628;48.714;9.472;2023-05-19T02:39:14;98487.03;;;11.21;62.78
79198;BME280;68628;48.714;9.472;2023-05-19T02:41:40;98493.47;;;11.18;62.53
79198;BME280;68628;48.714;9.472;2023-05-19T02:44:06;98487.41;;;11.09;62.19
79198;BME280;68628;48.714;9.472;2023-05-19T02:46:32;98484.72;;;11.17;62.09
79198;BME280;68628;48.714;9.472;2023-05-19T02:48:58;98480.91;;;11.20;62.37
79198;BME280;68628;48.714;9.472;2023-05-19T02:51:23;98483.25;;;11.15;63.17
79198;BME280;68628;48.714;9.472;2023-05-19T02:53:49;98484.41;;;11.12;62.40
79198;BME280;68628;48.714;9.472;2023-05-19T02:56:15;98490.88;;;11.02;63.16
79198;BME280;68628;48.714;9.472;2023-05-19T02:58:40;98493.34;;;11.03;63.28
79198;BME280;68628;48.714;9.472;2023-05-19T03:01:08;98488.06;;;11.03;63.19
79198;BME280;68628;48.714;9.472;2023-05-19T03:03:34;98483.69;;;10.95;62.56
79198;BME280;68628;48.714;9.472;2023-05-19T03:05:59;98483.19;;;10.92;62.53
79198;BME280;68628;48.714;9.472;2023-05-19T03:08:26;98486.69;;;10.84;63.04
79198;BME280;68628;48.714;9.472;2023-05-19T03:10:52;98480.72;;;10.82;63.48
79198;BME280;68628;48.714;9.472;2023-05-19T03:13:18;98476.75;;;10.94;63.43
79198;BME280;68628;48.714;9.472;2023-05-19T03:15:43;98477.63;;;10.78;63.41
79198;BME280;68628;48.714;9.472;2023-05-19T03:18:09;98483.53;;;10.80;63.39
79198;BME280;68628;48.714;9.472;2023-05-19T03:20:37;98486.00;;;10.90;62.93
79198;BME280;68628;48.714;9.472;2023-05-19T03:23:02;98489.81;;;10.88;63.00
79198;BME280;68628;48.714;9.472;2023-05-19T03:25:28;98489.75;;;10.96;63.40
79198;BME280;68628;48.714;9.472;2023-05-19T03:27:54;98485.31;;;10.96;63.01
79198;BME280;68628;48.714;9.472;2023-05-19T03:30:20;98487.13;;;10.96;62.78
79198;BME280;68628;48.714;9.472;2023-05-19T03:32:46;98492.03;;;10.99;62.37
79198;BME280;68628;48.714;9.472;2023-05-19T03:35:12;98488.06;;;11.11;62.97
79198;BME280;68628;48.714;9.472;2023-05-19T03:37:37;98488.56;;;11.07;62.61
79198;BME280;68628;48.714;9.472;2023-05-19T03:40:03;98488.56;;;11.07;62.56
79198;BME280;68628;48.714;9.472;2023-05-19T03:42:30;98484.91;;;11.16;63.90
79198;BME280;68628;48.714;9.472;2023-05-19T03:44:55;98489.59;;;10.97;63.76
79198;BME280;68628;48.714;9.472;2023-05-19T03:47:21;98476.34;;;11.14;64.12
79198;BME280;68628;48.714;9.472;2023-05-19T03:49:47;98487.00;;;10.89;65.64
79198;BME280;68628;48.714;9.472;2023-05-19T03:52:12;98481.69;;;10.97;66.54
79198;BME280;68628;48.714;9.472;2023-05-19T03:54:38;98479.72;;;10.99;66.40
79198;BME280;68628;48.714;9.472;2023-05-19T03:57:04;98483.38;;;10.90;66.48
79198;BME280;68628;48.714;9.472;2023-05-19T03:59:30;98475.91;;;10.94;66.87
79198;BME280;68628;48.714;9.472;2023-05-19T04:01:56;98489.09;;;11.02;67.33
79198;BME280;68628;48.714;9.472;2023-05-19T04:04:22;98484.97;;;10.99;67.72
79198;BME280;68628;48.714;9.472;2023-05-19T04:06:48;98492.22;;;10.97;65.29
79198;BME280;68628;48.714;9.472;2023-05-19T04:09:14;98480.53;;;11.00;64.32
79198;BME280;68628;48.714;9.472;2023-05-19T04:11:41;98487.25;;;11.03;64.55
79198;BME280;68628;48.714;9.472;2023-05-19T04:14:08;98489.56;;;11.06;63.66
79198;BME280;68628;48.714;9.472;2023-05-19T04:16:34;98495.66;;;11.06;63.85
79198;BME280;68628;48.714;9.472;2023-05-19T04:19:00;98489.22;;;11.09;64.71
79198;BME280;68628;48.714;9.472;2023-05-19T04:21:26;98491.16;;;11.15;64.27
79198;BME280;68628;48.714;9.472;2023-05-19T04:23:52;98489.13;;;11.25;65.22
79198;BME280;68628;48.714;9.472;2023-05-19T04:26:18;98489.31;;;11.24;64.81
79198;BME280;68628;48.714;9.472;2023-05-19T04:28:45;98492.97;;;11.14;64.08
79198;BME280;68628;48.714;9.472;2023-05-19T04:31:13;98497.22;;;11.24;63.03
79198;BME280;68628;48.714;9.472;2023-05-19T04:33:39;98501.81;;;11.30;63.50
79198;BME280;68628;48.714;9.472;2023-05-19T04:36:07;98507.66;;;11.48;63.32
79198;BME280;68628;48.714;9.472;2023-05-19T04:38:35;98497.31;;;11.39;64.47
79198;BME280;68628;48.714;9.472;2023-05-19T04:41:07;98503.38;;;11.47;63.73
79198;BME280;68628;48.714;9.472;2023-05-19T04:43:36;98506.22;;;11.38;63.60
79198;BME280;68628;48.714;9.472;2023-05-19T04:46:15;98506.19;;;11.46;63.38
79198;BME280;68628;48.714;9.472;2023-05-19T04:48:40;98505.03;;;11.48;62.94
79198;BME280;68628;48.714;9.472;2023-05-19T04:51:07;98507.44;;;11.58;62.45
79198;BME280;68628;48.714;9.472;2023-05-19T04:53:32;98507.25;;;11.60;62.35
79198;BME280;68628;48.714;9.472;2023-05-19T04:55:58;98508.16;;;11.75;62.25
79198;BME280;68628;48.714;9.472;2023-05-19T04:58:28;98510.09;;;11.81;62.66
79198;BME280;68628;48.714;9.472;2023-05-19T05:00:54;98508.97;;;11.76;62.91
79198;BME280;68628;48.714;9.472;2023-05-19T05:03:20;98501.88;;;11.76;62.55
79198;BME280;68628;48.714;9.472;2023-05-19T05:05:49;98506.03;;;11.94;62.88
79198;BME280;68628;48.714;9.472;2023-05-19T05:08:15;98503.59;;;11.92;62.16
79198;BME280;68628;48.714;9.472;2023-05-19T05:10:48;98507.53;;;11.96;62.47
79198;BME280;68628;48.714;9.472;2023-05-19T05:13:15;98510.66;;;11.92;62.86
79198;BME280;68628;48.714;9.472;2023-05-19T05:15:41;98507.50;;;12.20;61.94
79198;BME280;68628;48.714;9.472;2023-05-19T05:18:07;98509.53;;;12.18;61.36
79198;BME280;68628;48.714;9.472;2023-05-19T05:20:33;98495.06;;;12.05;61.27
79198;BME280;68628;48.714;9.472;2023-05-19T05:22:59;98498.63;;;11.97;61.95
79198;BME280;68628;48.714;9.472;2023-05-19T05:25:25;98504.16;;;12.26;60.65
79198;BME280;68628;48.714;9.472;2023-05-19T05:27:51;98497.81;;;12.50;60.13
79198;BME280;68628;48.714;9.472;2023-05-19T05:30:17;98503.09;;;12.35;60.91
79198;BME280;68628;48.714;9.472;2023-05-19T05:32:42;98496.06;;;12.27;60.51
79198;BME280;68628;48.714;9.472;2023-05-19T05:35:08;98485.53;;;12.42;60.41
79198;BME280;68628;48.714;9.472;2023-05-19T05:37:34;98493.84;;;12.54;60.47
79198;BME280;68628;48.714;9.472;2023-05-19T05:40:00;98493.28;;;12.74;59.96
79198;BME280;68628;48.714;9.472;2023-05-19T05:42:25;98497.84;;;12.80;59.81
79198;BME280;68628;48.714;9.472;2023-05-19T05:44:51;98494.50;;;12.86;58.50
79198;BME280;68628;48.714;9.472;2023-05-19T05:47:16;98496.75;;;13.19;57.84
79198;BME280;68628;48.714;9.472;2023-05-19T05:49:42;98501.94;;;13.27;58.49
79198;BME280;68628;48.714;9.472;2023-05-19T05:52:14;98496.22;;;12.94;57.60
79198;BME280;68628;48.714;9.472;2023-05-19T05:54:42;98497.09;;;13.31;57.42
79198;BME280;68628;48.714;9.472;2023-05-19T05:57:08;98509.06;;;13.12;57.76
79198;BME280;68628;48.714;9.472;2023-05-19T05:59:34;98500.16;;;13.34;58.27
79198;BME280;68628;48.714;9.472;2023-05-19T06:02:00;98501.72;;;13.44;57.01
79198;BME280;68628;48.714;9.472;2023-05-19T06:04:26;98499.84;;;13.38;57.03
79198;BME280;68628;48.714;9.472;2023-05-19T06:06:52;98496.84;;;13.62;56.76
79198;BME280;68628;48.714;9.472;2023-05-19T06:09:20;98503.84;;;13.70;56.99
79198;BME280;68628;48.714;9.472;2023-05-19T06:11:46;98496.28;;;13.67;56.09
79198;BME280;68628;48.714;9.472;2023-05-19T06:14:11;98499.38;;;14.14;55.08
79198;BME280;68628;48.714;9.472;2023-05-19T06:16:37;98507.41;;;14.27;54.31
79198;BME280;68628;48.714;9.472;2023-05-19T06:19:02;98506.31;;;14.15;54.09
79198;BME280;68628;48.714;9.472;2023-05-19T06:21:28;98500.97;;;13.87;54.79
79198;BME280;68628;48.714;9.472;2023-05-19T06:23:53;98502.91;;;13.78;54.63
79198;BME280;68628;48.714;9.472;2023-05-19T06:26:19;98505.16;;;13.59;55.24
79198;BME280;68628;48.714;9.472;2023-05-19T06:28:45;98508.00;;;13.79;55.97
79198;BME280;68628;48.714;9.472;2023-05-19T06:31:11;98505.56;;;13.99;55.75
79198;BME280;68628;48.714;9.472;2023-05-19T06:33:36;98497.75;;;14.13;54.94
79198;BME280;68628;48.714;9.472;2023-05-19T06:36:02;98504.03;;;13.90;54.99
79198;BME280;68628;48.714;9.472;2023-05-19T06:38:28;98496.00;;;13.98;55.51
79198;BME280;68628;48.714;9.472;2023-05-19T06:40:53;98501.66;;;13.74;55.03
79198;BME280;68628;48.714;9.472;2023-05-19T06:43:19;98508.72;;;13.88;55.82
79198;BME280;68628;48.714;9.472;2023-05-19T06:45:45;98506.22;;;14.30;55.49
79198;BME280;68628;48.714;9.472;2023-05-19T06:48:10;98503.09;;;13.98;55.10
79198;BME280;68628;48.714;9.472;2023-05-19T06:50:36;98509.41;;;14.47;54.78
79198;BME280;68628;48.714;9.472;2023-05-19T06:53:01;98497.91;;;14.33;54.13
79198;BME280;68628;48.714;9.472;2023-05-19T06:55:27;98500.75;;;14.60;53.87
79198;BME280;68628;48.714;9.472;2023-05-19T06:57:53;98502.28;;;14.47;54.27
79198;BME280;68628;48.714;9.472;2023-05-19T07:00:18;98500.88;;;14.80;54.74
79198;BME280;68628;48.714;9.472;2023-05-19T07:02:44;98498.03;;;15.16;52.90
79198;BME280;68628;48.714;9.472;2023-05-19T07:05:10;98496.81;;;14.27;53.80
79198;BME280;68628;48.714;9.472;2023-05-19T07:07:35;98506.16;;;14.73;53.77
79198;BME280;68628;48.714;9.472;2023-05-19T07:10:01;98495.63;;;14.87;54.01
79198;BME280;68628;48.714;9.472;2023-05-19T07:12:27;98491.31;;;14.86;52.96
79198;BME280;68628;48.714;9.472;2023-05-19T07:14:52;98486.19;;;14.77;52.51
79198;BME280;68628;48.714;9.472;2023-05-19T07:17:18;98503.41;;;14.10;54.20
79198;BME280;68628;48.714;9.472;2023-05-19T07:19:43;98506.91;;;14.39;54.52
79198;BME280;68628;48.714;9.472;2023-05-19T07:22:09;98503.53;;;14.52;54.97
79198;BME280;68628;48.714;9.472;2023-05-19T07:24:35;98505.34;;;14.51;54.75
79198;BME280;68628;48.714;9.472;2023-05-19T07:27:01;98501.22;;;14.42;53.89
79198;BME280;68628;48.714;9.472;2023-05-19T07:29:26;98502.34;;;14.54;53.96
79198;BME280;68628;48.714;9.472;2023-05-19T07:31:52;98498.88;;;14.60;53.77
79198;BME280;68628;48.714;9.472;2023-05-19T07:34:22;98490.91;;;14.25;54.46
79198;BME280;68628;48.714;9.472;2023-05-19T07:36:49;98488.75;;;14.36;54.14
79198;BME280;68628;48.714;9.472;2023-05-19T07:39:15;98481.25;;;14.46;53.58
79198;BME280;68628;48.714;9.472;2023-05-19T07:41:41;98482.31;;;14.80;53.67
79198;BME280;68628;48.714;9.472;2023-05-19T07:44:06;98490.56;;;14.98;52.41
79198;BME280;68628;48.714;9.472;2023-05-19T07:46:33;98487.25;;;14.83;53.88
79198;BME280;68628;48.714;9.472;2023-05-19T07:48:59;98486.00;;;14.86;53.60
79198;BME280;68628;48.714;9.472;2023-05-19T07:51:24;98492.53;;;14.55;53.44
79198;BME280;68628;48.714;9.472;2023-05-19T07:53:50;98488.84;;;14.77;52.83
79198;BME280;68628;48.714;9.472;2023-05-19T07:56:17;98486.56;;;14.46;53.51
79198;BME280;68628;48.714;9.472;2023-05-19T07:58:43;98491.28;;;14.79;53.59
79198;BME280;68628;48.714;9.472;2023-05-19T08:01:08;98493.19;;;14.57;53.05
79198;BME280;68628;48.714;9.472;2023-05-19T08:03:34;98487.31;;;14.96;52.87
79198;BME280;68628;48.714;9.472;2023-05-19T08:06:00;98481.34;;;15.36;51.92
79198;BME280;68628;48.714;9.472;2023-05-19T08:08:25;98486.19;;;15.19;51.43
79198;BME280;68628;48.714;9.472;2023-05-19T08:10:51;98478.03;;;14.79;53.08
79198;BME280;68628;48.714;9.472;2023-05-19T08:13:17;98475.22;;;15.42;51.77
79198;BME280;68628;48.714;9.472;2023-05-19T08:15:42;98471.47;;;15.16;51.59
79198;BME280;68628;48.714;9.472;2023-05-19T08:18:08;98476.13;;;15.08;51.92
79198;BME280;68628;48.714;9.472;2023-05-19T08:20:33;98467.22;;;15.29;51.93
79198;BME280;68628;48.714;9.472;2023-05-19T08:22:59;98467.44;;;15.34;51.71
79198;BME280;68628;48.714;9.472;2023-05-19T08:25:24;98469.78;;;15.71;50.81
79198;BME280;68628;48.714;9.472;2023-05-19T08:27:50;98472.19;;;15.45;51.47
79198;BME280;68628;48.714;9.472;2023-05-19T08:30:16;98468.44;;;15.26;51.45
79198;BME280;68628;48.714;9.472;2023-05-19T08:32:42;98466.50;;;15.00;51.86
79198;BME280;68628;48.714;9.472;2023-05-19T08:35:08;98462.81;;;14.94;51.76
79198;BME280;68628;48.714;9.472;2023-05-19T08:37:34;98463.22;;;14.91;52.13
79198;BME280;68628;48.714;9.472;2023-05-19T08:40:02;98460.25;;;14.73;51.85
79198;BME280;68628;48.714;9.472;2023-05-19T08:42:29;98464.13;;;14.48;53.36
79198;BME280;68628;48.714;9.472;2023-05-19T08:44:58;98467.84;;;14.26;53.59
79198;BME280;68628;48.714;9.472;2023-05-19T08:47:24;98459.94;;;14.61;53.04
79198;BME280;68628;48.714;9.472;2023-05-19T08:49:52;98457.94;;;15.05;53.37
79198;BME280;68628;48.714;9.472;2023-05-19T08:52:51;98462.28;;;14.71;52.97
79198;BME280;68628;48.714;9.472;2023-05-19T08:55:48;98462.81;;;15.01;52.32
79198;BME280;68628;48.714;9.472;2023-05-19T08:58:20;98471.47;;;14.75;52.98
79198;BME280;68628;48.714;9.472;2023-05-19T09:00:47;98460.56;;;14.63;53.18
79198;BME280;68628;48.714;9.472;2023-05-19T09:03:15;98469.88;;;14.80;53.12
79198;BME280;68628;48.714;9.472;2023-05-19T09:05:43;98454.59;;;14.89;52.79
79198;BME280;68628;48.714;9.472;2023-05-19T09:08:10;98453.16;;;15.28;51.44
79198;BME280;68628;48.714;9.472;2023-05-19T09:10:35;98454.25;;;14.99;52.18
79198;BME280;68628;48.714;9.472;2023-05-19T09:13:01;98441.66;;;15.14;52.71
79198;BME280;68628;48.714;9.472;2023-05-19T09:15:26;98455.28;;;14.98;53.34
79198;BME280;68628;48.714;9.472;2023-05-19T09:18:12;98448.34;;;15.04;53.21
79198;BME280;68628;48.714;9.472;2023-05-19T09:20:41;98450.25;;;15.23;52.50
79198;BME280;68628;48.714;9.472;2023-05-19T09:23:12;98443.50;;;15.21;51.85
79198;BME280;68628;48.714;9.472;2023-05-19T09:26:01;98452.03;;;15.09;52.87
79198;BME280;68628;48.714;9.472;2023-05-19T09:28:30;98451.34;;;15.49;51.26
79198;BME280;68628;48.714;9.472;2023-05-19T09:31:07;98448.22;;;15.25;51.78
79198;BME280;68628;48.714;9.472;2023-05-19T09:33:38;98451.69;;;15.19;52.65
79198;BME280;68628;48.714;9.472;2023-05-19T09:36:05;98450.53;;;15.55;52.37
79198;BME280;68628;48.714;9.472;2023-05-19T09:38:33;98445.44;;;15.60;51.49
79198;BME280;68628;48.714;9.472;2023-05-19T09:41:00;98446.72;;;15.98;50.48
79198;BME280;68628;48.714;9.472;2023-05-19T09:43:27;98447.31;;;15.66;50.83
79198;BME280;68628;48.714;9.472;2023-05-19T09:46:04;98447.69;;;15.63;50.32
79198;BME280;68628;48.714;9.472;2023-05-19T09:48:34;98443.28;;;15.15;50.76
79198;BME280;68628;48.714;9.472;2023-05-19T09:51:01;98448.41;;;15.17;51.88
79198;BME280;68628;48.714;9.472;2023-05-19T09:53:29;98443.72;;;15.19;51.85
79198;BME280;68628;48.714;9.472;2023-05-19T09:55:56;98437.41;;;15.27;51.49
79198;BME280;68628;48.714;9.472;2023-05-19T09:58:22;98442.16;;;15.52;50.55
79198;BME280;68628;48.714;9.472;2023-05-19T10:00:49;98433.38;;;15.44;51.32
79198;BME280;68628;48.714;9.472;2023-05-19T10:03:16;98431.59;;;15.78;50.69
79198;BME280;68628;48.714;9.472;2023-05-19T10:05:43;98437.69;;;15.52;50.50
79198;BME280;68628;48.714;9.472;2023-05-19T10:08:11;98432.25;;;15.19;51.32
79198;BME280;68628;48.714;9.472;2023-05-19T10:10:37;98435.13;;;15.17;52.07
79198;BME280;68628;48.714;9.472;2023-05-19T10:13:04;98432.66;;;15.09;53.00
79198;BME280;68628;48.714;9.472;2023-05-19T10:15:30;98429.97;;;15.02;52.37
79198;BME280;68628;48.714;9.472;2023-05-19T10:17:58;98430.97;;;15.01;53.17
79198;BME280;68628;48.714;9.472;2023-05-19T10:20:25;98434.00;;;14.85;53.39
79198;BME280;68628;48.714;9.472;2023-05-19T10:22:52;98434.13;;;15.18;53.44
79198;BME280;68628;48.714;9.472;2023-05-19T10:25:18;98434.72;;;15.13;52.62
79198;BME280;68628;48.714;9.472;2023-05-19T10:27:58;98441.50;;;14.81;52.42
79198;BME280;68628;48.714;9.472;2023-05-19T10:30:33;98437.03;;;14.88;52.71
79198;BME280;68628;48.714;9.472;2023-05-19T10:33:05;98441.13;;;14.91;53.05
79198;BME280;68628;48.714;9.472;2023-05-19T10:41:22;98431.84;;;14.66;52.97
79198;BME280;68628;48.714;9.472;2023-05-19T10:44:13;98438.59;;;14.69;52.60
79198;BME280;68628;48.714;9.472;2023-05-19T10:46:52;98436.22;;;14.81;51.30
79198;BME280;68628;48.714;9.472;2023-05-19T10:49:21;98430.84;;;14.68;52.53
79198;BME280;68628;48.714;9.472;2023-05-19T10:51:47;98437.25;;;14.52;52.33
79198;BME280;68628;48.714;9.472;2023-05-19T10:54:13;98439.59;;;14.68;52.59
79198;BME280;68628;48.714;9.472;2023-05-19T10:56:43;98439.31;;;14.85;52.35
79198;BME280;68628;48.714;9.472;2023-05-19T10:59:31;98433.16;;;14.84;53.03
79198;BME280;68628;48.714;9.472;2023-05-19T11:02:06;98428.72;;;14.91;52.87
79198;BME280;68628;48.714;9.472;2023-05-19T11:04:45;98426.06;;;14.91;52.60
79198;BME280;68628;48.714;9.472;2023-05-19T11:07:19;98426.41;;;14.81;51.51
79198;BME280;68628;48.714;9.472;2023-05-19T11:09:50;98424.25;;;15.05;51.88
79198;BME280;68628;48.714;9.472;2023-05-19T11:12:20;98426.88;;;14.92;51.89
79198;BME280;68628;48.714;9.472;2023-05-19T11:14:47;98430.50;;;14.84;51.53
79198;BME280;68628;48.714;9.472;2023-05-19T11:17:18;98426.84;;;14.85;52.10
79198;BME280;68628;48.714;9.472;2023-05-19T11:19:56;98426.78;;;14.72;52.39
79198;BME280;68628;48.714;9.472;2023-05-19T11:22:25;98430.31;;;14.50;52.36
79198;BME280;68628;48.714;9.472;2023-05-19T11:24:55;98438.34;;;14.29;53.50
79198;BME280;68628;48.714;9.472;2023-05-19T11:27:24;98423.41;;;14.56;53.06
79198;BME280;68628;48.714;9.472;2023-05-19T11:29:51;98430.06;;;14.74;54.24
79198;BME280;68628;48.714;9.472;2023-05-19T11:32:25;98429.47;;;14.78;53.25
79198;BME280;68628;48.714;9.472;2023-05-19T11:34:52;98428.69;;;14.56;53.27
79198;BME280;68628;48.714;9.472;2023-05-19T11:37:19;98432.91;;;14.44;54.63
79198;BME280;68628;48.714;9.472;2023-05-19T11:39:45;98434.44;;;14.60;53.88
79198;BME280;68628;48.714;9.472;2023-05-19T11:42:12;98429.66;;;14.48;52.94
79198;BME280;68628;48.714;9.472;2023-05-19T11:44:38;98426.22;;;14.48;52.90
79198;BME280;68628;48.714;9.472;2023-05-19T11:47:06;98434.56;;;14.80;53.02
79198;BME280;68628;48.714;9.472;2023-05-19T11:49:32;98431.00;;;15.08;53.31
79198;BME280;68628;48.714;9.472;2023-05-19T11:52:02;98428.13;;;15.03;52.34
79198;BME280;68628;48.714;9.472;2023-05-19T11:54:30;98428.63;;;15.33;52.15
79198;BME280;68628;48.714;9.472;2023-05-19T11:57:01;98428.25;;;15.36;51.24
79198;BME280;68628;48.714;9.472;2023-05-19T11:59:29;98421.75;;;14.90;51.99
79198;BME280;68628;48.714;9.472;2023-05-19T12:02:14;98425.41;;;14.82;53.58
79198;BME280;68628;48.714;9.472;2023-05-19T12:04:41;98420.00;;;15.11;52.39
79198;BME280;68628;48.714;9.472;2023-05-19T12:07:07;98414.28;;;15.07;51.31
79198;BME280;68628;48.714;9.472;2023-05-19T12:09:35;98412.44;;;15.08;52.36
79198;BME280;68628;48.714;9.472;2023-05-19T12:12:01;98415.69;;;14.96;52.54
79198;BME280;68628;48.714;9.472;2023-05-19T12:14:28;98426.56;;;14.73;53.19
79198;BME280;68628;48.714;9.472;2023-05-19T12:16:55;98419.81;;;14.64;53.12
79198;BME280;68628;48.714;9.472;2023-05-19T12:19:25;98420.28;;;14.81;53.74
79198;BME280;68628;48.714;9.472;2023-05-19T12:21:51;98414.78;;;14.82;53.08
79198;BME280;68628;48.714;9.472;2023-05-19T12:24:21;98415.78;;;14.81;52.89
79198;BME280;68628;48.714;9.472;2023-05-19T12:26:47;98414.94;;;14.68;53.88
79198;BME280;68628;48.714;9.472;2023-05-19T12:29:14;98415.50;;;15.11;53.51
79198;BME280;68628;48.714;9.472;2023-05-19T12:31:40;98421.50;;;14.78;53.54
79198;BME280;68628;48.714;9.472;2023-05-19T12:34:05;98416.50;;;14.62;53.10
79198;BME280;68628;48.714;9.472;2023-05-19T12:36:31;98420.72;;;14.85;53.25
79198;BME280;68628;48.714;9.472;2023-05-19T12:38:57;98420.38;;;15.01;53.42
79198;BME280;68628;48.714;9.472;2023-05-19T12:41:24;98420.78;;;14.98;53.23
79198;BME280;68628;48.714;9.472;2023-05-19T12:43:53;98419.88;;;14.77;52.43
79198;BME280;68628;48.714;9.472;2023-05-19T12:46:19;98420.84;;;14.70;51.93
79198;BME280;68628;48.714;9.472;2023-05-19T12:48:45;98427.34;;;14.67;53.38
79198;BME280;68628;48.714;9.472;2023-05-19T12:51:18;98429.22;;;14.73;52.87
79198;BME280;68628;48.714;9.472;2023-05-19T12:53:44;98421.66;;;14.63;53.26
79198;BME280;68628;48.714;9.472;2023-05-19T12:56:14;98425.25;;;14.56;53.50
79198;BME280;68628;48.714;9.472;2023-05-19T12:58:42;98422.63;;;14.62;53.51
79198;BME280;68628;48.714;9.472;2023-05-19T13:01:17;98415.41;;;14.78;53.79
79198;BME280;68628;48.714;9.472;2023-05-19T13:03:42;98415.31;;;14.64;53.36
79198;BME280;68628;48.714;9.472;2023-05-19T13:06:09;98410.53;;;14.95;52.22
79198;BME280;68628;48.714;9.472;2023-05-19T13:08:35;98418.84;;;14.78;52.65
79198;BME280;68628;48.714;9.472;2023-05-19T13:11:02;98413.34;;;14.80;53.57
79198;BME280;68628;48.714;9.472;2023-05-19T13:13:28;98412.00;;;15.04;52.83
79198;BME280;68628;48.714;9.472;2023-05-19T13:15:54;98409.94;;;14.93;52.90
79198;BME280;68628;48.714;9.472;2023-05-19T13:18:21;98414.47;;;14.99;53.43
79198;BME280;68628;48.714;9.472;2023-05-19T13:20:46;98406.50;;;14.99;52.23
79198;BME280;68628;48.714;9.472;2023-05-19T13:23:14;98406.94;;;15.16;52.92
79198;BME280;68628;48.714;9.472;2023-05-19T13:25:41;98409.03;;;15.27;52.09
79198;BME280;68628;48.714;9.472;2023-05-19T13:28:08;98408.63;;;15.44;51.69